Time;durP1;ratioP1;P1;durP2;ratioP2;P2;SDS_P1;SDS_P2;PMS_P1;PMS_P2;Temp;Humidity;BMP_temperature;BMP_pressure;BME280_temperature;BME280_humidity;BME280_pressure;Samples;Min_cycle;Max_cycle;Signal;HPM_P1;HPM_P2
2021/12/23 00:03:22;;;;;;;101.88;30.33;;;;;;;-4.71;86.34;100003.88;8358345;28;20120;-87
2021/12/23 00:07:23;;;;;;;104.15;31.25;;;;;;;-4.72;86.61;99997.78;8358773;28;20127;-85
2021/12/23 00:11:24;;;;;;;99.97;31.58;;;;;;;-4.72;86.52;99992.50;8363441;28;20091;-86
2021/12/23 00:16:01;;;;;;;106.00;32.42;;;;;;;-4.74;86.69;99994.50;8358148;28;20498;-88
2021/12/23 00:24:18;;;;;;;96.07;31.27;;;;;;;-4.79;86.97;99996.88;8342140;28;20045;-86
2021/12/23 00:28:21;;;;;;;104.32;31.58;;;;;;;-4.79;86.90;99981.06;8352797;28;20074;-88
2021/12/23 00:32:21;;;;;;;99.97;31.30;;;;;;;-4.80;86.94;99984.72;8344919;28;20505;-87
2021/12/23 00:36:22;;;;;;;105.45;32.15;;;;;;;-4.78;86.61;99987.97;8341172;28;20045;-87
2021/12/23 00:40:23;;;;;;;102.03;32.40;;;;;;;-4.79;86.96;99991.63;8362344;28;20131;-87
2021/12/23 00:44:24;;;;;;;111.53;32.00;;;;;;;-4.81;86.69;99987.56;8336595;28;20051;-88
2021/12/23 00:48:25;;;;;;;119.43;33.90;;;;;;;-4.82;86.75;99986.72;8340865;28;20064;-85
2021/12/23 00:52:31;;;;;;;103.88;32.13;;;;;;;-4.86;86.94;99980.19;8345663;28;20535;-88
2021/12/23 00:56:34;;;;;;;107.25;33.28;;;;;;;-4.86;86.98;99985.47;8323727;28;20053;-87
2021/12/23 01:00:35;;;;;;;105.57;32.90;;;;;;;-4.90;87.00;99984.22;8374246;28;20048;-83
2021/12/23 01:04:37;;;;;;;109.25;30.90;;;;;;;-4.93;86.91;99984.59;8455603;28;20206;-85
2021/12/23 01:08:38;;;;;;;99.03;32.03;;;;;;;-4.90;86.82;99978.94;8434176;28;20048;-87
2021/12/23 01:12:52;;;;;;;99.18;31.58;;;;;;;-4.93;87.06;99968.78;8424625;28;20143;-89
2021/12/23 01:21:14;;;;;;;95.78;30.92;;;;;;;-4.87;86.54;99962.78;8460497;28;20064;-84
2021/12/23 01:25:15;;;;;;;97.68;31.45;;;;;;;-4.91;86.55;99950.97;8433596;28;20053;-90
2021/12/23 01:29:16;;;;;;;98.47;30.80;;;;;;;-4.93;86.61;99958.25;8428262;28;20072;-87
2021/12/23 01:33:16;;;;;;;107.03;32.17;;;;;;;-4.96;86.73;99953.34;8426126;28;20119;-88
2021/12/23 01:37:17;;;;;;;114.53;31.98;;;;;;;-5.04;87.14;99950.84;8427422;28;20052;-93
2021/12/23 01:41:19;;;;;;;110.85;33.70;;;;;;;-5.12;87.47;99948.31;8434489;28;20165;-91
2021/12/23 01:45:22;;;;;;;100.45;31.08;;;;;;;-5.19;87.74;99936.91;8455146;28;20388;-89
2021/12/23 01:49:23;;;;;;;98.28;30.75;;;;;;;-5.21;87.89;99929.19;8450096;28;20496;-87
2021/12/23 01:53:24;;;;;;;113.47;32.38;;;;;;;-5.21;88.21;99917.84;8436169;28;20134;-89
2021/12/23 01:57:27;;;;;;;102.30;31.58;;;;;;;-5.26;87.88;99904.41;8443115;28;20044;-89
2021/12/23 02:01:28;;;;;;;108.65;33.10;;;;;;;-5.20;87.77;99887.88;8442517;28;20047;-92
2021/12/23 02:05:30;;;;;;;98.35;31.40;;;;;;;-5.24;88.09;99892.72;8418845;28;20085;-89
2021/12/23 02:09:31;;;;;;;96.78;32.40;;;;;;;-5.30;88.00;99876.84;8440440;28;20047;-87
2021/12/23 02:13:32;;;;;;;102.28;30.58;;;;;;;-5.34;88.13;99876.38;8470302;27;20086;-84
2021/12/23 02:17:37;;;;;;;107.78;33.10;;;;;;;-5.34;88.42;99870.34;8465069;27;20077;-85
2021/12/23 02:21:41;;;;;;;118.57;32.75;;;;;;;-5.38;88.67;99875.13;8471959;27;20077;-88
2021/12/23 02:25:42;;;;;;;107.25;32.80;;;;;;;-5.39;88.72;99862.19;8352779;28;20099;-84
2021/12/23 02:29:43;;;;;;;100.88;30.90;;;;;;;-5.35;88.51;99858.97;8344542;28;20048;-89
2021/12/23 02:33:44;;;;;;;107.40;31.33;;;;;;;-5.34;88.28;99849.28;8342454;28;20052;-83
2021/12/23 02:37:46;;;;;;;99.35;31.48;;;;;;;-5.39;88.29;99843.75;8359208;28;20050;-88
2021/12/23 02:41:47;;;;;;;107.78;32.20;;;;;;;-5.40;88.23;99835.03;8359863;28;20103;-85
2021/12/23 02:45:50;;;;;;;105.60;30.98;;;;;;;-5.38;88.16;99837.47;8364070;28;20179;-86
2021/12/23 02:49:50;;;;;;;110.45;32.03;;;;;;;-5.37;87.97;99831.19;8344573;28;20145;-84
2021/12/23 02:53:51;;;;;;;105.43;32.78;;;;;;;-5.38;88.25;99826.94;8325339;28;20136;-86
2021/12/23 02:57:52;;;;;;;110.15;32.85;;;;;;;-5.37;87.93;99815.41;8475204;27;20082;-86
2021/12/23 03:01:53;;;;;;;98.13;30.30;;;;;;;-5.36;87.61;99798.63;8458347;27;20089;-87
2021/12/23 03:05:55;;;;;;;107.13;31.75;;;;;;;-5.41;87.71;99801.00;8475650;27;20075;-86
2021/12/23 03:09:56;;;;;;;120.45;33.03;;;;;;;-5.35;87.68;99800.25;8460847;27;20500;-84
2021/12/23 03:13:58;;;;;;;107.07;31.85;;;;;;;-5.39;87.78;99788.47;8481041;27;20051;-86
2021/12/23 03:17:59;;;;;;;106.57;31.42;;;;;;;-5.39;87.59;99783.22;8447875;27;20048;-87
2021/12/23 03:21:59;;;;;;;117.50;33.25;;;;;;;-5.43;87.74;99771.41;8475457;27;20165;-88
2021/12/23 03:26:01;;;;;;;112.72;32.20;;;;;;;-5.48;87.93;99752.75;8475502;27;20035;-89
2021/12/23 03:30:03;;;;;;;111.97;35.25;;;;;;;-5.46;88.03;99745.47;8475554;27;20122;-84
2021/12/23 03:34:04;;;;;;;108.47;33.00;;;;;;;-5.48;87.86;99742.22;8404111;28;20055;-89
2021/12/23 03:38:05;;;;;;;101.35;32.47;;;;;;;-5.54;87.92;99734.06;8404390;28;20139;-87
2021/12/23 03:42:07;;;;;;;101.32;32.22;;;;;;;-5.55;87.98;99723.72;8395367;28;20052;-91
2021/12/23 03:46:07;;;;;;;102.10;31.50;;;;;;;-5.56;88.14;99715.06;8395538;28;20064;-88
2021/12/23 03:50:09;;;;;;;106.20;31.38;;;;;;;-5.58;88.26;99722.31;8404004;28;20040;-88
2021/12/23 03:54:10;;;;;;;103.28;32.67;;;;;;;-5.56;88.26;99715.06;8398220;28;20048;-91
2021/12/23 03:58:11;;;;;;;111.32;31.23;;;;;;;-5.56;88.45;99704.53;8396185;28;20102;-86
2021/12/23 04:02:11;;;;;;;108.90;32.50;;;;;;;-5.58;88.47;99692.53;8401220;28;20124;-91
2021/12/23 04:06:12;;;;;;;100.85;31.63;;;;;;;-5.61;88.46;99691.13;8448715;28;20046;-89
2021/12/23 04:10:16;;;;;;;105.32;32.15;;;;;;;-5.62;88.24;99684.22;8466852;27;20440;-89
2021/12/23 04:14:16;;;;;;;103.82;30.35;;;;;;;-5.60;88.32;99698.00;8447417;28;20055;-91
2021/12/23 04:18:17;;;;;;;93.47;30.38;;;;;;;-5.60;88.14;99679.56;8468107;27;20095;-89
2021/12/23 04:22:18;;;;;;;99.45;30.63;;;;;;;-5.59;88.03;99675.13;8460455;27;20053;-94
2021/12/23 04:26:19;;;;;;;107.75;31.73;;;;;;;-5.60;87.66;99661.16;8451721;27;20114;-86
2021/12/23 04:30:21;;;;;;;88.90;30.45;;;;;;;-5.58;87.56;99664.41;8470091;27;20119;-91
2021/12/23 04:34:21;;;;;;;101.50;30.20;;;;;;;-5.60;87.61;99660.34;8464585;27;20503;-92
2021/12/23 04:38:22;;;;;;;105.40;31.33;;;;;;;-5.60;87.69;99650.63;8448480;27;20043;-86
2021/12/23 04:42:23;;;;;;;97.10;31.33;;;;;;;-5.64;87.72;99649.38;8446290;27;20048;-84
2021/12/23 04:46:24;;;;;;;110.88;33.05;;;;;;;-5.65;88.02;99642.50;8462076;28;20039;-89
2021/12/23 04:50:26;;;;;;;123.63;33.95;;;;;;;-5.67;87.77;99644.53;8368038;28;20053;-91
2021/12/23 04:54:26;;;;;;;102.50;32.70;;;;;;;-5.67;87.79;99628.72;8384823;28;20056;-86
2021/12/23 04:58:27;;;;;;;93.20;29.45;;;;;;;-5.68;87.98;99624.47;8357527;28;20098;-86
2021/12/23 05:02:28;;;;;;;99.68;30.45;;;;;;;-5.67;87.85;99607.69;8342383;28;20598;-85
2021/12/23 05:06:28;;;;;;;98.88;29.27;;;;;;;-5.64;87.65;99607.28;8367510;28;20063;-84
2021/12/23 05:10:29;;;;;;;90.47;27.98;;;;;;;-5.58;87.16;99606.53;8359181;28;20139;-91
2021/12/23 05:14:30;;;;;;;87.30;28.48;;;;;;;-5.54;86.75;99593.78;8349348;28;20102;-90
2021/12/23 05:18:31;;;;;;;100.50;30.27;;;;;;;-5.55;86.71;99590.34;8351806;28;20045;-87
2021/12/23 05:22:32;;;;;;;98.40;30.85;;;;;;;-5.58;86.59;99596.00;8467691;27;20051;-89
2021/12/23 05:26:35;;;;;;;103.80;33.03;;;;;;;-5.56;86.44;99583.47;8490999;27;20043;-88
2021/12/23 05:30:38;;;;;;;92.95;29.92;;;;;;;-5.57;86.71;99587.09;8462830;28;20040;-88
2021/12/23 05:34:39;;;;;;;100.97;35.28;;;;;;;-5.55;86.29;99585.06;8447350;28;20476;-86
2021/12/23 05:38:39;;;;;;;96.70;31.83;;;;;;;-5.53;86.39;99583.06;8470337;28;20165;-87
2021/12/23 05:42:43;;;;;;;87.85;28.02;;;;;;;-5.49;86.24;99566.88;8452269;28;20032;-91
2021/12/23 05:46:44;;;;;;;93.53;29.17;;;;;;;-5.44;85.47;99567.09;8409586;28;20497;-89
2021/12/23 05:50:44;;;;;;;88.00;28.35;;;;;;;-5.46;85.79;99561.25;8460740;28;20051;-84
2021/12/23 05:54:45;;;;;;;100.45;30.15;;;;;;;-5.47;85.48;99546.47;8442013;28;20113;-83
2021/12/23 05:58:46;;;;;;;153.68;48.30;;;;;;;-5.47;85.54;99535.94;8442504;28;20050;-85
2021/12/23 06:02:48;;;;;;;122.97;37.40;;;;;;;-5.50;85.51;99549.50;8442095;28;20053;-83
2021/12/23 06:06:49;;;;;;;108.95;33.53;;;;;;;-5.53;85.75;99546.22;8475659;27;20043;-84
2021/12/23 06:10:51;;;;;;;133.73;42.65;;;;;;;-5.55;85.69;99526.38;8460255;28;20408;-85
2021/12/23 06:14:55;;;;;;;116.65;36.72;;;;;;;-5.57;86.02;99518.69;8442016;28;20055;-84
2021/12/23 06:18:56;;;;;;;114.55;33.72;;;;;;;-5.59;86.27;99515.44;8460017;28;20058;-83
2021/12/23 06:22:57;;;;;;;110.10;36.65;;;;;;;-5.59;86.11;99510.16;8422721;28;20055;-84
2021/12/23 06:26:57;;;;;;;123.57;39.55;;;;;;;-5.60;86.42;99519.06;8459562;28;20044;-84
2021/12/23 06:30:58;;;;;;;122.35;37.72;;;;;;;-5.61;86.49;99511.38;8430394;28;20109;-91
2021/12/23 06:34:59;;;;;;;118.57;36.95;;;;;;;-5.59;86.31;99510.16;8466379;27;20119;-85
2021/12/23 06:39:00;;;;;;;135.95;39.30;;;;;;;-5.58;86.60;99511.78;8448600;27;20043;-87
2021/12/23 06:43:01;;;;;;;133.88;37.33;;;;;;;-5.58;86.63;99506.53;8481594;27;20047;-84
2021/12/23 06:47:03;;;;;;;131.30;39.90;;;;;;;-5.57;86.33;99502.09;8474019;27;20035;-85
2021/12/23 06:51:04;;;;;;;136.57;41.95;;;;;;;-5.64;86.81;99512.56;8447235;28;20039;-85
2021/12/23 06:55:07;;;;;;;143.73;42.65;;;;;;;-5.63;86.81;99508.94;8447474;28;20069;-85
2021/12/23 06:59:08;;;;;;;147.85;44.78;;;;;;;-5.66;87.06;99498.78;8441152;28;20036;-86
2021/12/23 07:03:09;;;;;;;150.93;46.58;;;;;;;-5.63;87.32;99493.16;8446660;27;20040;-85
2021/12/23 07:11:11;;;;;;;139.98;43.10;;;;;;;-5.63;87.43;99482.63;8464832;28;20079;-83
2021/12/23 07:15:12;;;;;;;134.52;40.53;;;;;;;-5.59;87.52;99473.31;8446999;27;20051;-85
2021/12/23 07:19:13;;;;;;;135.77;39.83;;;;;;;-5.53;87.64;99472.53;8465965;28;20046;-86
2021/12/23 07:23:19;;;;;;;119.05;38.58;;;;;;;-5.45;87.26;99473.41;8464611;27;20043;-87
2021/12/23 07:27:21;;;;;;;126.07;37.58;;;;;;;-5.37;87.14;99470.56;8464355;28;20370;-89
2021/12/23 07:31:22;;;;;;;120.40;38.15;;;;;;;-5.32;87.31;99463.72;8431013;28;20070;-86
2021/12/23 07:35:23;;;;;;;127.00;39.47;;;;;;;-5.23;87.17;99461.69;8460601;27;20059;-85
2021/12/23 07:39:23;;;;;;;119.07;38.45;;;;;;;-5.23;87.08;99451.16;8460313;27;20042;-88
2021/12/23 07:47:37;;;;;;;121.55;38.70;;;;;;;-5.12;86.79;99447.97;8462738;27;20054;-85
2021/12/23 07:51:39;;;;;;;126.53;39.88;;;;;;;-5.05;87.13;99424.28;8444071;28;20481;-86
2021/12/23 07:55:42;;;;;;;129.65;42.33;;;;;;;-4.99;86.79;99426.94;8459262;27;20054;-86
2021/12/23 07:59:43;;;;;;;125.45;42.30;;;;;;;-4.91;86.64;99434.63;8475566;27;20043;-86
2021/12/23 08:03:44;;;;;;;139.35;40.72;;;;;;;-4.89;86.46;99427.34;8451313;27;20146;-87
2021/12/23 08:07:45;;;;;;;127.18;42.08;;;;;;;-4.86;86.73;99400.59;8444569;28;20055;-84
2021/12/23 08:11:45;;;;;;;123.43;40.38;;;;;;;-4.83;86.65;99410.75;8462566;27;20611;-86
2021/12/23 08:15:46;;;;;;;107.57;35.28;;;;;;;-4.75;86.66;99407.88;8444805;28;20054;-87
2021/12/23 08:19:47;;;;;;;111.03;35.20;;;;;;;-4.71;86.60;99403.84;8409928;27;20511;-89
2021/12/23 08:23:48;;;;;;;99.05;34.05;;;;;;;-4.58;86.52;99391.66;8445582;27;20039;-88
2021/12/23 08:27:50;;;;;;;100.47;33.65;;;;;;;-4.52;86.40;99396.13;8455556;27;20044;-89
2021/12/23 08:31:53;;;;;;;91.55;31.75;;;;;;;-4.43;86.24;99389.63;8405873;27;20720;-89
2021/12/23 08:35:54;;;;;;;93.68;31.60;;;;;;;-4.34;86.05;99367.31;8461241;27;20089;-85
2021/12/23 08:39:55;;;;;;;106.97;33.83;;;;;;;-4.27;86.13;99370.72;8451636;27;20486;-87
2021/12/23 08:43:56;;;;;;;96.20;33.35;;;;;;;-4.21;85.82;99364.63;8461513;28;20085;-87
2021/12/23 08:47:57;;;;;;;109.70;33.22;;;;;;;-4.09;85.86;99364.81;8444940;28;20043;-88
2021/12/23 08:51:58;;;;;;;103.00;34.67;;;;;;;-4.00;85.64;99347.72;8457573;27;20126;-87
2021/12/23 08:55:59;;;;;;;95.53;30.70;;;;;;;-3.91;85.37;99346.47;8459855;27;20484;-86
2021/12/23 09:00:00;;;;;;;98.00;32.53;;;;;;;-3.85;85.42;99335.88;8470065;27;20043;-84
2021/12/23 09:04:01;;;;;;;104.05;33.83;;;;;;;-3.78;85.38;99319.22;8469481;27;20040;-87
2021/12/23 09:08:05;;;;;;;95.43;32.25;;;;;;;-3.71;85.06;99304.16;8435346;27;20527;-86
2021/12/23 09:12:07;;;;;;;91.10;31.70;;;;;;;-3.69;85.43;99302.09;8425754;28;20101;-85
2021/12/23 09:16:08;;;;;;;88.85;31.23;;;;;;;-3.65;85.39;99292.78;8443645;28;20732;-85
2021/12/23 09:20:10;;;;;;;85.38;28.30;;;;;;;-3.57;85.37;99295.13;8466451;27;20036;-86
2021/12/23 09:24:11;;;;;;;78.15;28.75;;;;;;;-3.51;85.05;99283.72;8443519;28;20089;-85
2021/12/23 09:36:34;;;;;;;77.07;26.77;;;;;;;-3.31;84.45;99268.56;8442563;28;20051;-88
2021/12/23 09:40:36;;;;;;;77.90;27.58;;;;;;;-3.24;83.92;99264.03;8441388;28;20412;-87
2021/12/23 09:44:38;;;;;;;93.40;31.02;;;;;;;-3.19;83.90;99248.34;8460704;28;20421;-84
2021/12/23 09:48:42;;;;;;;82.68;29.63;;;;;;;-3.22;83.77;99240.84;8443478;28;20063;-85
2021/12/23 09:52:48;;;;;;;92.88;29.42;;;;;;;-3.17;83.73;99227.78;8453479;28;20043;-84
2021/12/23 09:56:48;;;;;;;103.70;30.38;;;;;;;-3.11;83.57;99226.13;8442119;28;20274;-88
2021/12/23 10:00:50;;;;;;;113.53;32.53;;;;;;;-3.09;83.70;99219.59;8456708;28;20044;-87
2021/12/23 10:04:51;;;;;;;105.93;31.88;;;;;;;-2.99;83.30;99219.91;8440882;28;20047;-85
2021/12/23 10:08:56;;;;;;;171.93;40.85;;;;;;;-2.92;83.76;99203.19;8446326;27;20044;-86
2021/12/23 10:38:43;;;;;;;93.15;32.67;;;;;;;-2.65;83.15;99119.91;8329955;28;20076;-86
2021/12/23 10:42:50;;;;;;;95.32;31.95;;;;;;;-2.59;82.65;99134.91;8341934;28;20087;-88
2021/12/23 10:46:51;;;;;;;92.22;30.50;;;;;;;-2.60;82.75;99117.41;8361071;28;20132;-89
2021/12/23 10:50:59;;;;;;;91.95;28.88;;;;;;;-2.55;82.56;99109.63;8360130;28;20465;-87
2021/12/23 10:59:12;;;;;;;78.65;27.35;;;;;;;-2.46;82.13;99102.97;8309528;28;20033;-89
2021/12/23 11:03:29;;;;;;;75.65;26.85;;;;;;;-2.43;81.80;99081.34;8372916;28;20047;-85
2021/12/23 11:39:06;;;;;;;73.97;27.48;;;;;;;-2.07;80.98;99021.41;8288876;28;20052;-86
2021/12/23 11:47:12;;;;;;;87.30;29.25;;;;;;;-2.19;79.69;99003.69;8342461;27;20534;-89
2021/12/23 11:51:20;;;;;;;84.80;30.02;;;;;;;-2.13;79.89;98986.91;8447938;27;20039;-92
2021/12/23 11:55:21;;;;;;;;;;;;;;;-2.04;79.73;98973.31;8455613;27;20040;-89
2021/12/23 11:59:22;;;;;;;82.50;30.25;;;;;;;-2.08;79.59;98956.28;8450329;27;19926;-90
2021/12/23 12:03:23;;;;;;;95.75;30.02;;;;;;;-2.02;79.40;98947.44;8448902;28;20118;-88
2021/12/23 12:07:25;;;;;;;86.90;30.58;;;;;;;-2.09;79.51;98947.56;8446879;27;20043;-88
2021/12/23 12:11:26;;;;;;;99.13;34.80;;;;;;;-2.04;79.99;98952.16;8431378;28;20048;-88
2021/12/23 12:15:39;;;;;;;85.35;29.08;;;;;;;-2.01;79.44;98951.69;8462790;27;20035;-90
2021/12/23 12:20:36;;;;;;;107.20;33.35;;;;;;;-1.98;79.82;98935.34;8456995;28;20118;-90
2021/12/23 12:24:46;;;;;;;83.53;32.40;;;;;;;-2.01;80.19;98909.38;8165002;29;20068;-87
2021/12/23 12:28:47;;;;;;;79.15;28.90;;;;;;;-1.99;79.57;98901.97;8147430;29;20047;-92
2021/12/23 12:32:48;;;;;;;85.60;30.20;;;;;;;-1.95;80.22;98893.34;8178941;28;20047;-92
2021/12/23 12:36:50;;;;;;;104.15;33.88;;;;;;;-1.89;80.27;98896.91;8164774;29;20056;-88
2021/12/23 12:40:57;;;;;;;93.38;31.55;;;;;;;-1.90;80.08;98879.41;8168025;29;20078;-90
2021/12/23 12:45:08;;;;;;;90.13;31.10;;;;;;;-1.87;80.06;98878.94;8163214;29;20497;-86
2021/12/23 12:54:03;;;;;;;84.03;31.10;;;;;;;-1.84;80.16;98867.88;8129269;29;20481;-88
2021/12/23 12:58:04;;;;;;;83.15;30.67;;;;;;;-1.73;79.73;98853.81;8132223;28;20044;-87
2021/12/23 13:02:25;;;;;;;90.05;35.08;;;;;;;-1.67;79.96;98867.94;8338946;28;20049;-88
2021/12/23 13:06:39;;;;;;;99.45;32.90;;;;;;;-1.66;79.89;98854.50;8370476;28;20091;-90
2021/12/23 13:10:46;;;;;;;90.43;32.75;;;;;;;-1.74;80.31;98852.19;8354722;28;20490;-89
2021/12/23 13:14:58;;;;;;;107.38;34.75;;;;;;;-1.73;80.62;98856.47;8358788;28;20056;-86
2021/12/23 13:19:16;;;;;;;96.43;33.30;;;;;;;-1.75;80.60;98845.31;8358405;28;20525;-88
2021/12/23 13:23:22;;;;;;;108.55;34.80;;;;;;;-1.75;80.89;98829.44;8356029;28;20049;-89
2021/12/23 13:27:24;;;;;;;113.78;35.22;;;;;;;-1.80;81.15;98832.00;8339115;28;20053;-89
2021/12/23 13:31:28;;;;;;;106.68;37.90;;;;;;;-1.73;81.47;98827.34;8468394;27;20126;-86
2021/12/23 13:35:31;;;;;;;99.35;37.20;;;;;;;-1.69;81.38;98823.19;8459781;28;20473;-93
2021/12/23 13:39:36;;;;;;;92.45;33.33;;;;;;;-1.66;81.39;98833.31;8441265;28;20043;-88
2021/12/23 13:43:37;;;;;;;89.57;34.28;;;;;;;-1.61;81.41;98814.06;8439815;28;20051;-91
2021/12/23 13:47:38;;;;;;;94.45;35.80;;;;;;;-1.60;81.79;98811.19;8462205;28;20055;-88
2021/12/23 13:51:41;;;;;;;89.95;31.42;;;;;;;-1.62;81.54;98805.31;8445768;28;20470;-86
2021/12/23 13:55:42;;;;;;;80.38;29.02;;;;;;;-1.53;81.11;98795.94;8455683;28;20488;-85
2021/12/23 13:59:45;;;;;;;82.60;30.95;;;;;;;-1.47;80.30;98795.00;8460084;28;20134;-92
2021/12/23 14:03:46;;;;;;;84.78;32.00;;;;;;;-1.51;80.01;98793.88;8426740;28;20057;-89
2021/12/23 14:07:50;;;;;;;95.32;32.58;;;;;;;-1.46;80.00;98786.00;8451354;28;20047;-85
2021/12/23 14:11:51;;;;;;;83.50;31.23;;;;;;;-1.44;79.64;98757.44;8441660;28;20078;-88
2021/12/23 14:15:52;;;;;;;79.10;30.20;;;;;;;-1.44;80.00;98751.34;8460204;28;20131;-88
2021/12/23 14:23:11;;;;;;;78.15;30.67;;;;;;;-1.49;79.52;98744.13;8425897;28;20054;-90
2021/12/23 14:24:20;;;;;;;85.53;31.35;;;;;;;-1.50;79.51;98737.22;8454524;28;20039;-93
2021/12/23 14:28:26;;;;;;;84.28;28.90;;;;;;;-1.52;79.76;98723.41;8466092;28;20393;-87
2021/12/23 14:32:27;;;;;;;83.25;29.92;;;;;;;-1.53;79.50;98716.50;8410698;28;20082;-86
2021/12/23 14:36:31;;;;;;;68.82;27.77;;;;;;;-1.52;79.52;98712.81;8433340;28;20472;-92
2021/12/23 14:40:32;;;;;;;76.60;29.23;;;;;;;-1.50;79.62;98700.13;8437073;28;20080;-88
2021/12/23 14:44:37;;;;;;;82.38;28.30;;;;;;;-1.52;79.51;98681.03;8441388;28;20431;-88
2021/12/23 14:49:21;;;;;;;76.53;29.85;;;;;;;-1.57;79.77;98667.72;8438225;28;20169;-91
2021/12/23 14:53:19;;;;;;;91.03;33.53;;;;;;;-1.58;79.95;98660.81;8466614;28;20126;-88
2021/12/23 14:57:52;;;;;;;90.35;33.97;;;;;;;-1.61;79.81;98665.78;8448197;27;20442;-89
2021/12/23 15:02:06;;;;;;;94.65;36.35;;;;;;;-1.62;79.87;98657.03;8291031;28;20053;-92
2021/12/23 15:06:08;;;;;;;97.03;36.83;;;;;;;-1.60;79.69;98647.03;8279244;28;20046;-91
2021/12/23 15:10:09;;;;;;;113.47;40.20;;;;;;;-1.59;79.53;98635.38;8295221;28;20523;-89
2021/12/23 15:14:17;;;;;;;112.78;41.30;;;;;;;-1.59;79.67;98627.44;8295184;28;20049;-89
2021/12/23 15:18:31;;;;;;;99.65;37.30;;;;;;;-1.60;79.67;98615.25;8279110;28;20061;-87
2021/12/23 15:22:36;;;;;;;96.57;34.95;;;;;;;-1.61;79.64;98603.03;8295012;28;20038;-89
2021/12/23 15:26:37;;;;;;;94.60;37.17;;;;;;;-1.63;79.77;98583.94;8279170;28;20058;-88
2021/12/23 15:30:39;;;;;;;105.57;37.83;;;;;;;-1.62;79.45;98564.38;8295510;28;20061;-90
2021/12/23 15:34:47;;;;;;;96.07;35.90;;;;;;;-1.68;79.44;98560.03;8293381;28;20057;-88
2021/12/23 15:38:47;;;;;;;96.00;33.13;;;;;;;-1.66;79.26;98539.44;8405895;27;20055;-88
2021/12/23 15:42:50;;;;;;;83.40;34.38;;;;;;;-1.62;79.38;98527.31;8466285;27;20320;-87
2021/12/23 15:46:52;;;;;;;77.15;31.45;;;;;;;-1.56;78.97;98505.16;8411691;28;20120;-88
2021/12/23 15:50:53;;;;;;;80.85;31.65;;;;;;;-1.53;78.40;98515.22;8481899;27;20047;-87
2021/12/23 15:54:54;;;;;;;74.38;27.75;;;;;;;-1.51;78.28;98534.34;8470538;27;20048;-90
2021/12/23 15:58:55;;;;;;;68.13;26.00;;;;;;;-1.52;77.69;98530.09;8466566;28;20044;-86
2021/12/23 16:02:56;;;;;;;68.50;28.63;;;;;;;-1.53;77.57;98531.13;8445811;27;20051;-88
2021/12/23 16:07:18;;;;;;;76.05;27.30;;;;;;;-1.48;77.69;98523.25;8472624;27;20043;-86
2021/12/23 16:11:19;;;;;;;80.47;30.15;;;;;;;-1.45;77.50;98522.78;8460157;27;20499;-86
2021/12/23 16:15:21;;;;;;;85.30;32.22;;;;;;;-1.47;77.38;98519.56;8446186;27;20082;-87
2021/12/23 16:19:22;;;;;;;94.65;32.33;;;;;;;-1.47;77.47;98519.56;8453193;27;20450;-89
2021/12/23 16:23:24;;;;;;;85.53;30.75;;;;;;;-1.49;77.24;98516.38;8445772;28;20054;-90
2021/12/23 16:27:25;;;;;;;75.90;30.52;;;;;;;-1.47;77.16;98514.25;8479373;27;20043;-88
2021/12/23 16:31:27;;;;;;;79.97;30.77;;;;;;;-1.43;77.09;98510.06;8445047;28;20138;-88
2021/12/23 16:35:31;;;;;;;82.70;30.02;;;;;;;-1.42;77.21;98511.69;8444939;28;20084;-88
2021/12/23 16:39:32;;;;;;;75.63;29.20;;;;;;;-1.41;77.59;98502.69;8428723;28;20038;-84
2021/12/23 16:43:33;;;;;;;82.38;29.67;;;;;;;-1.40;77.53;98514.88;8462769;27;20044;-88
2021/12/23 16:47:34;;;;;;;71.75;28.58;;;;;;;-1.39;77.26;98513.84;8445531;28;20039;-87
2021/12/23 16:51:35;;;;;;;87.68;32.65;;;;;;;-1.38;77.60;98502.22;8463437;27;20139;-89
2021/12/23 16:59:41;;;;;;;85.68;30.63;;;;;;;-1.40;77.48;98488.41;8473238;27;20044;-87
2021/12/23 17:03:42;;;;;;;76.57;30.45;;;;;;;-1.38;77.97;98491.63;8472781;27;20043;-87
2021/12/23 17:07:43;;;;;;;93.50;33.50;;;;;;;-1.35;77.94;98488.47;8462050;27;20116;-85
2021/12/23 17:11:48;;;;;;;99.53;34.78;;;;;;;-1.34;78.17;98482.13;8438331;27;20086;-87
2021/12/23 17:15:49;;;;;;;114.13;38.83;;;;;;;-1.33;78.17;98481.09;8462109;27;20047;-84
2021/12/23 17:20:05;;;;;;;107.90;37.42;;;;;;;-1.30;78.33;98469.97;8461416;27;20043;-85
2021/12/23 17:24:06;;;;;;;86.63;32.92;;;;;;;-1.25;77.80;98473.72;8469592;27;20043;-84
2021/12/23 17:28:08;;;;;;;99.43;38.60;;;;;;;-1.31;78.48;98463.06;8460926;28;20039;-87
2021/12/23 17:32:10;;;;;;;86.35;33.72;;;;;;;-1.31;78.32;98449.84;8443659;28;20096;-88
2021/12/23 17:36:11;;;;;;;83.88;32.30;;;;;;;-1.35;78.31;98443.44;8450776;28;20136;-88
2021/12/23 17:40:13;;;;;;;101.35;35.47;;;;;;;-1.35;78.50;98443.44;8469442;27;20480;-84
2021/12/23 17:44:13;;;;;;;101.78;35.90;;;;;;;-1.33;78.80;98430.75;8443057;28;20107;-87
2021/12/23 17:48:15;;;;;;;107.38;36.97;;;;;;;-1.37;78.80;98424.34;8454692;28;20489;-85
2021/12/23 17:52:19;;;;;;;93.45;33.65;;;;;;;-1.32;78.57;98437.63;8458271;28;20044;-84
2021/12/23 17:56:20;;;;;;;95.55;33.90;;;;;;;-1.24;78.81;98438.25;8445183;28;20051;-85
2021/12/23 18:00:21;;;;;;;94.53;34.60;;;;;;;-1.18;78.52;98439.91;8465729;28;20133;-83
2021/12/23 18:04:23;;;;;;;91.63;32.33;;;;;;;-1.11;78.04;98443.19;8449812;28;20585;-82
2021/12/23 18:08:25;;;;;;;78.63;30.35;;;;;;;-1.07;77.79;98444.28;8459235;28;20067;-83
2021/12/23 18:12:26;;;;;;;80.18;30.10;;;;;;;-1.05;77.94;98442.97;8458793;28;20142;-83
2021/12/23 18:16:27;;;;;;;75.43;30.30;;;;;;;-1.06;77.31;98437.94;8459304;28;20067;-84
2021/12/23 18:20:29;;;;;;;88.15;31.88;;;;;;;-0.97;77.35;98417.88;8459225;28;20180;-82
2021/12/23 18:24:30;;;;;;;78.25;31.42;;;;;;;-0.91;76.99;98411.56;8445387;27;20047;-83
2021/12/23 18:28:31;;;;;;;85.97;31.00;;;;;;;-0.89;77.04;98404.16;8448069;27;20512;-83
2021/12/23 18:32:33;;;;;;;76.13;31.33;;;;;;;-1.01;78.35;98384.97;8466251;27;20662;-84
2021/12/23 18:36:38;;;;;;;89.80;32.60;;;;;;;-1.11;79.48;98379.59;8454420;27;20055;-87
2021/12/23 18:40:46;;;;;;;96.90;33.65;;;;;;;-1.14;79.81;98369.47;8431993;27;20072;-84
2021/12/23 18:44:46;;;;;;;93.45;33.45;;;;;;;-1.14;79.61;98348.28;8449508;28;20036;-85
2021/12/23 18:48:48;;;;;;;92.05;35.00;;;;;;;-1.20;80.83;98343.97;8466751;27;20035;-87
2021/12/23 18:52:49;;;;;;;93.57;35.72;;;;;;;-1.30;81.31;98324.28;8466072;27;20075;-87
2021/12/23 18:56:50;;;;;;;85.15;34.30;;;;;;;-1.30;81.30;98326.94;8448236;27;20048;-86
2021/12/23 19:00:57;;;;;;;86.45;33.03;;;;;;;-1.27;80.94;98322.19;8466565;27;20400;-85
2021/12/23 19:05:20;;;;;;;99.13;35.30;;;;;;;-1.30;80.69;98303.09;8416208;27;20147;-85
2021/12/23 19:09:21;;;;;;;88.68;35.15;;;;;;;-1.34;80.92;98307.31;8467373;27;20071;-88
2021/12/23 19:13:22;;;;;;;98.20;34.63;;;;;;;-1.29;80.88;98299.41;8447325;27;20053;-85
2021/12/23 19:17:23;;;;;;;105.68;38.28;;;;;;;-1.31;81.38;98290.91;8474390;27;20541;-84
2021/12/23 19:21:25;;;;;;;94.43;35.85;;;;;;;-1.32;81.09;98283.19;8467264;27;20035;-86
2021/12/23 19:25:28;;;;;;;101.80;36.17;;;;;;;-1.32;81.23;98278.69;8448575;27;20052;-85
2021/12/23 19:29:29;;;;;;;115.82;39.47;;;;;;;-1.32;80.76;98278.69;8447057;28;20123;-82
2021/12/23 19:33:30;;;;;;;110.03;37.10;;;;;;;-1.30;80.57;98276.63;8447155;27;20385;-87
2021/12/23 19:37:31;;;;;;;148.73;44.95;;;;;;;-1.30;80.92;98271.31;8463537;28;20537;-83
2021/12/23 19:41:34;;;;;;;113.57;40.17;;;;;;;-1.23;80.22;98275.59;8454198;27;20054;-84
2021/12/23 19:45:35;;;;;;;101.32;34.78;;;;;;;-1.19;79.44;98271.41;8443806;28;20051;-83
2021/12/23 19:49:37;;;;;;;97.30;33.75;;;;;;;-1.19;79.38;98250.19;8467005;27;20065;-86
2021/12/23 19:53:38;;;;;;;82.22;32.88;;;;;;;-1.20;79.26;98253.91;8429607;27;20035;-86
2021/12/23 19:57:41;;;;;;;90.43;32.00;;;;;;;-1.17;79.31;98248.09;8390611;28;20481;-87
2021/12/23 20:01:42;;;;;;;88.45;32.30;;;;;;;-1.08;79.05;98246.56;8377222;28;20551;-82
2021/12/23 20:05:46;;;;;;;81.38;31.35;;;;;;;-1.08;79.41;98246.56;8392166;28;20574;-84
2021/12/23 20:09:48;;;;;;;92.75;33.42;;;;;;;-1.08;79.89;98235.97;8358427;28;20059;-83
2021/12/23 20:13:50;;;;;;;106.43;35.80;;;;;;;-1.10;79.96;98228.28;8399250;28;20416;-83